Main page
METAR-TAF:

METAR-TAF

Airports :

Reus Airport

Reus, Spain

latitude: 41-09N, longitude: 001-10E, elevation: 71 m

Current weather observation

The report was made 24 minutes ago, at 06:00 UTC
Wind 5 kt from the East/Southeast
Temperature 11°C
Humidity 82%
Pressure 1024 hPa
Visibility 10 km or more
no clouds below 1500 m and no cumulonimbus

METAR: LERS 230600Z 11005KT CAVOK 11/08 Q1024

Time: 08:24 (06:24 UTC)

Forecast

The report was made 4 hours and 24 minutes ago, at 02:00 UTC
Forecast valid from 23 at 03 UTC to 24 at 03 UTC
Wind 4 kt from variable directions
Visibility 10 km or more
Few clouds at a height of 3000 ft
Temporary
from 23 at 03 UTC to 23 at 09 UTC
Wind 13 kt from the West/Northwest
Probability 40% :
Temporary
from 23 at 12 UTC to 23 at 17 UTC
Wind 7 kt from the South

TAF: LERS 230200Z 2303/2403 VRB04KT 9999 FEW030 TX23/2313Z TN11/2306Z TEMPO 2303/2309 29013KT PROB40 TEMPO 2312/2317 19007KT

Weather observations and forecasts of more than 4000 airports (METAR and TAF reports).

The available stations are represented by yellow and red dots on the map.

Hover mouse over dot to see the name of the station.

Then click to see weather observations and forecasts.

To change the map : click on the green buttons with a black cross to zoom in, on the green button with a dash to zoom out, or on the green arrows for adjacent maps.


METAR-TAF: